Time;durP1;ratioP1;P1;durP2;ratioP2;P2;SDS_P1;SDS_P2;PMS_P1;PMS_P2;Temp;Humidity;BMP_temperature;BMP_pressure;BME280_temperature;BME280_humidity;BME280_pressure;Samples;Min_cycle;Max_cycle;Signal;HPM_P1;HPM_P2
2023/10/07 00:01:52;;;;;;;10.57;4.25;;;;;;;13.99;56.20;98264.44;10418936;28;20040;-74
2023/10/07 00:07:14;;;;;;;10.43;4.53;;;;;;;13.94;56.51;98246.63;10460849;28;20483;-74
2023/10/07 00:12:35;;;;;;;10.65;3.88;;;;;;;13.95;56.75;98261.41;10418495;28;20068;-73
2023/10/07 00:18:12;;;;;;;12.07;4.43;;;;;;;13.95;56.88;98244.56;10445865;28;20056;-73
2023/10/07 00:23:35;;;;;;;9.90;3.83;;;;;;;13.91;57.24;98231.03;10421366;28;20112;-74
2023/10/07 00:29:01;;;;;;;10.33;4.27;;;;;;;13.90;57.15;98240.78;10431964;28;20079;-74
2023/10/07 00:34:27;;;;;;;10.75;4.50;;;;;;;13.92;57.36;98240.19;10440905;28;20112;-73
2023/10/07 00:39:48;;;;;;;11.82;4.63;;;;;;;13.95;57.23;98230.53;10433080;28;20125;-74
2023/10/07 00:45:14;;;;;;;9.40;4.07;;;;;;;13.95;57.27;98225.66;10417189;28;20072;-74
2023/10/07 00:50:35;;;;;;;14.18;5.30;;;;;;;13.89;57.35;98230.88;10444375;28;20064;-74
2023/10/07 00:55:58;;;;;;;14.00;4.63;;;;;;;13.89;57.35;98224.53;10416641;28;20127;-73
2023/10/07 01:01:20;;;;;;;11.70;4.50;;;;;;;13.88;57.27;98215.38;10430708;28;20068;-75
2023/10/07 01:06:45;;;;;;;10.70;4.20;;;;;;;13.83;57.37;98216.50;10429785;28;20044;-72
2023/10/07 01:12:08;;;;;;;11.05;4.22;;;;;;;13.85;57.48;98210.25;10443280;28;20041;-73
2023/10/07 01:17:31;;;;;;;10.45;4.43;;;;;;;13.81;57.38;98202.34;10429463;28;20048;-72
2023/10/07 01:23:03;;;;;;;10.52;4.55;;;;;;;13.91;57.06;98208.56;10415987;28;20436;-73
2023/10/07 01:28:26;;;;;;;12.75;5.20;;;;;;;13.97;56.96;98194.91;10430637;28;20112;-74
2023/10/07 01:33:47;;;;;;;11.70;5.03;;;;;;;13.96;57.05;98204.66;10416094;28;20108;-73
2023/10/07 01:39:08;;;;;;;8.90;4.22;;;;;;;13.96;56.73;98198.31;10442885;28;20733;-74
2023/10/07 01:44:31;;;;;;;10.93;3.78;;;;;;;14.04;56.52;98196.75;10428289;28;20041;-74
2023/10/07 01:49:57;;;;;;;11.10;4.80;;;;;;;13.97;56.48;98175.25;10442834;28;20068;-75
2023/10/07 01:55:19;;;;;;;11.43;4.72;;;;;;;13.94;56.41;98179.28;10428626;28;20057;-73
2023/10/07 02:00:44;;;;;;;11.00;4.75;;;;;;;13.85;56.21;98174.53;10428335;28;20112;-74
2023/10/07 02:06:05;;;;;;;12.82;4.20;;;;;;;13.80;56.22;98181.22;10414517;28;20091;-73
2023/10/07 02:11:28;;;;;;;10.40;4.60;;;;;;;13.77;56.49;98174.00;10414517;28;20443;-73
2023/10/07 02:16:50;;;;;;;10.67;4.77;;;;;;;13.71;56.41;98170.84;10428716;28;20056;-74
2023/10/07 02:22:21;;;;;;;12.13;4.60;;;;;;;13.63;56.59;98150.72;10427582;28;20044;-73
2023/10/07 02:27:48;;;;;;;10.52;4.53;;;;;;;13.60;56.64;98157.50;10428796;28;20040;-74
2023/10/07 02:33:13;;;;;;;10.80;4.82;;;;;;;13.64;56.87;98146.56;10428385;28;20041;-74
2023/10/07 02:38:41;;;;;;;10.05;4.50;;;;;;;13.71;56.83;98148.41;10440873;28;20049;-74
2023/10/07 02:44:06;;;;;;;9.68;4.32;;;;;;;13.74;56.86;98138.75;10442145;28;20049;-75
2023/10/07 02:49:27;;;;;;;11.88;4.90;;;;;;;13.71;56.97;98142.78;10440930;28;20065;-73
2023/10/07 02:55:12;;;;;;;9.00;4.10;;;;;;;13.62;57.13;98138.03;10427029;28;20403;-74
2023/10/07 03:00:38;;;;;;;11.52;4.60;;;;;;;13.49;57.50;98132.97;10435968;28;20053;-74
2023/10/07 03:05:59;;;;;;;13.90;5.15;;;;;;;13.41;57.88;98133.97;10444056;28;20061;-74
2023/10/07 03:11:23;;;;;;;11.15;4.28;;;;;;;13.48;58.09;98153.97;10448675;28;20052;-75
2023/10/07 03:16:47;;;;;;;10.60;4.53;;;;;;;13.45;58.29;98136.28;10462228;28;20068;-74
2023/10/07 03:22:15;;;;;;;;;;;;;;;13.38;58.43;98143.56;10462214;28;20474;-72
2023/10/07 03:27:39;;;;;;;10.40;4.32;;;;;;;13.24;58.56;98139.88;10461892;28;19994;-73
2023/10/07 03:33:08;;;;;;;12.18;4.55;;;;;;;13.13;59.04;98135.69;10435173;28;20041;-73
2023/10/07 03:38:29;;;;;;;11.60;4.78;;;;;;;13.07;59.27;98142.97;10461596;28;20048;-74
2023/10/07 03:43:50;;;;;;;11.82;4.65;;;;;;;12.94;59.57;98151.94;10433339;28;20111;-73
2023/10/07 03:49:11;;;;;;;12.57;5.22;;;;;;;12.80;60.25;98138.44;10461879;28;20049;-74
2023/10/07 03:54:33;;;;;;;9.68;4.20;;;;;;;12.67;60.47;98130.59;10433139;28;20052;-74
2023/10/07 03:59:55;;;;;;;9.93;4.22;;;;;;;12.67;60.62;98136.19;10433295;28;20491;-74
2023/10/07 04:05:31;;;;;;;12.15;4.22;;;;;;;12.65;61.02;98127.69;10460543;28;20064;-74
2023/10/07 04:10:54;;;;;;;11.68;4.38;;;;;;;12.67;61.52;98133.41;10461695;28;20045;-74
2023/10/07 04:16:24;;;;;;;9.65;3.83;;;;;;;12.66;61.38;98129.13;10452412;28;20048;-74
2023/10/07 04:21:45;;;;;;;12.02;4.00;;;;;;;12.68;61.70;98137.66;10468260;28;20060;-73
2023/10/07 04:27:07;;;;;;;12.95;4.32;;;;;;;12.67;61.75;98141.81;10452433;28;20049;-74
2023/10/07 04:32:28;;;;;;;11.90;4.43;;;;;;;12.69;61.85;98149.59;10446178;28;20041;-74
2023/10/07 04:37:54;;;;;;;9.63;3.80;;;;;;;12.70;62.26;98151.78;10445165;28;20399;-74
2023/10/07 04:48:56;;;;;;;11.52;3.80;;;;;;;12.64;62.22;98148.59;10460370;28;20456;-74
2023/10/07 04:54:20;;;;;;;9.30;3.72;;;;;;;12.58;62.39;98140.53;10444794;28;20037;-73
2023/10/07 04:59:45;;;;;;;7.38;3.47;;;;;;;12.54;62.60;98133.91;10459008;28;20048;-74
2023/10/07 05:05:13;;;;;;;11.57;4.47;;;;;;;12.53;62.91;98136.00;10431466;28;20049;-74
2023/10/07 05:10:38;;;;;;;12.57;4.15;;;;;;;12.57;63.00;98121.53;10445984;28;20045;-74
2023/10/07 05:15:59;;;;;;;9.93;3.70;;;;;;;12.59;62.96;98135.66;10432483;28;20410;-74
2023/10/07 05:21:22;;;;;;;12.68;3.83;;;;;;;12.65;63.06;98141.69;10454628;28;20061;-74
2023/10/07 05:26:43;;;;;;;14.67;4.77;;;;;;;12.76;63.06;98126.25;10443708;28;20045;-74
2023/10/07 05:32:06;;;;;;;12.23;4.55;;;;;;;12.89;63.08;98123.63;10456673;28;20041;-73
2023/10/07 05:37:27;;;;;;;11.18;4.22;;;;;;;13.09;62.43;98123.47;10443110;28;20049;-73
2023/10/07 05:42:49;;;;;;;11.70;4.22;;;;;;;13.26;62.33;98140.00;10456662;28;20441;-74
2023/10/07 05:48:10;;;;;;;9.93;4.20;;;;;;;13.44;61.71;98135.56;10442444;28;20036;-73
2023/10/07 05:53:33;;;;;;;8.00;3.63;;;;;;;13.56;61.52;98112.41;10456124;28;20041;-74
2023/10/07 05:58:55;;;;;;;10.15;3.85;;;;;;;13.92;61.02;98114.63;10442096;28;20041;-74
2023/10/07 06:04:16;;;;;;;10.85;4.43;;;;;;;14.19;59.77;98104.97;10442392;28;20049;-75
2023/10/07 06:09:37;;;;;;;9.30;4.13;;;;;;;14.24;59.41;98117.91;10414277;28;20045;-72
2023/10/07 06:14:59;;;;;;;11.38;4.28;;;;;;;14.25;58.64;98144.63;10457162;28;20072;-74
2023/10/07 06:20:26;;;;;;;11.25;4.50;;;;;;;14.46;58.39;98135.34;10428465;28;20120;-74
2023/10/07 06:25:51;;;;;;;9.80;3.90;;;;;;;16.01;57.66;98150.28;10442801;28;20528;-73
2023/10/07 06:36:54;;;;;;;9.43;4.55;;;;;;;25.10;38.48;98157.97;10452566;28;20052;-72
2023/10/07 06:42:17;;;;;;;9.20;4.17;;;;;;;28.10;34.70;98162.66;10464400;28;20041;-75
2023/10/07 06:47:38;;;;;;;9.85;4.47;;;;;;;27.49;30.02;98159.41;10450133;28;20135;-74
2023/10/07 06:52:59;;;;;;;8.73;4.72;;;;;;;23.03;33.15;98174.22;10434874;28;20119;-74
2023/10/07 06:58:22;;;;;;;7.75;4.25;;;;;;;21.65;36.20;98188.09;10448729;28;20167;-73
2023/10/07 07:03:44;;;;;;;8.27;4.10;;;;;;;26.59;34.29;98194.38;10463551;28;20055;-73
2023/10/07 07:09:41;;;;;;;8.63;4.50;;;;;;;25.31;31.88;98196.16;10434789;28;20116;-73
2023/10/07 07:14:51;;;;;;;11.52;4.32;;;;;;;23.41;34.40;98197.94;10436927;28;20045;-74
2023/10/07 07:25:39;;;;;;;7.88;4.28;;;;;;;25.89;33.03;98213.50;10462815;28;20071;-75
2023/10/07 07:31:02;;;;;;;8.77;3.92;;;;;;;24.72;31.88;98206.50;10447928;28;20065;-74
2023/10/07 07:36:39;;;;;;;9.02;4.75;;;;;;;23.39;33.18;98217.84;10433792;28;20124;-73
2023/10/07 07:42:15;;;;;;;8.00;4.13;;;;;;;21.75;35.12;98242.38;10449175;28;20049;-71
2023/10/07 07:47:38;;;;;;;8.88;4.75;;;;;;;23.06;35.51;98236.22;10436480;28;20087;-73
2023/10/07 07:53:06;;;;;;;10.40;4.47;;;;;;;27.92;29.66;98231.44;10461749;28;20049;-74
2023/10/07 07:58:27;;;;;;;9.65;4.20;;;;;;;32.03;26.58;98227.16;10447651;28;20114;-74
2023/10/07 08:03:48;;;;;;;10.40;4.78;;;;;;;35.34;21.57;98223.78;10446195;28;20075;-74
2023/10/07 08:09:10;;;;;;;7.00;3.80;;;;;;;35.47;20.36;98218.41;10446309;28;20041;-75
2023/10/07 08:14:33;;;;;;;6.95;3.38;;;;;;;35.42;19.72;98223.59;10418573;28;20072;-76
2023/10/07 08:19:54;;;;;;;7.53;4.18;;;;;;;33.14;21.20;98221.47;10445751;28;20120;-74
2023/10/07 08:25:37;;;;;;;8.00;4.18;;;;;;;35.70;19.89;98209.81;10431545;28;20444;-77
2023/10/07 08:31:12;;;;;;;6.18;3.78;;;;;;;36.91;17.96;98208.66;10448332;28;20044;-77
2023/10/07 08:36:36;;;;;;;7.15;4.50;;;;;;;39.17;15.65;98208.75;10421237;28;20076;-77
2023/10/07 08:41:59;;;;;;;5.55;3.60;;;;;;;40.83;14.45;98209.56;10444785;28;20458;-78
2023/10/07 08:47:21;;;;;;;6.53;4.00;;;;;;;41.20;13.21;98190.25;10430946;28;20041;-77
2023/10/07 08:52:42;;;;;;;5.78;3.95;;;;;;;42.28;12.68;98197.22;10416763;28;20094;-77
2023/10/07 08:58:03;;;;;;;4.93;3.47;;;;;;;42.67;12.23;98186.34;10430374;28;20529;-78
2023/10/07 09:03:28;;;;;;;5.88;3.47;;;;;;;36.92;14.85;98207.16;10430242;28;20078;-76
2023/10/07 09:08:50;;;;;;;5.65;3.15;;;;;;;32.58;18.59;98195.50;10417092;28;20434;-76
2023/10/07 09:14:11;;;;;;;6.55;3.85;;;;;;;30.22;21.16;98191.63;10443383;28;20453;-74
2023/10/07 09:19:34;;;;;;;8.02;4.60;;;;;;;28.07;23.24;98175.56;10458116;28;20495;-73
2023/10/07 09:25:08;;;;;;;11.30;4.00;;;;;;;27.79;24.53;98169.66;10429741;28;20108;-73
2023/10/07 09:30:38;;;;;;;8.75;4.53;;;;;;;25.03;27.57;98179.25;10444881;28;20125;-74
2023/10/07 09:41:41;;;;;;;9.07;4.30;;;;;;;22.68;31.99;98164.78;10434056;28;20051;-73
2023/10/07 09:47:10;;;;;;;8.32;4.35;;;;;;;22.77;32.39;98160.00;10442136;28;20045;-73
2023/10/07 09:52:32;;;;;;;11.13;4.35;;;;;;;23.28;32.80;98153.50;10456884;28;20040;-74
2023/10/07 09:58:17;;;;;;;9.38;4.10;;;;;;;25.13;30.33;98150.16;10442271;28;20040;-71
2023/10/07 10:03:46;;;;;;;7.85;4.13;;;;;;;24.54;29.61;98149.81;10428960;28;20079;-74
2023/10/07 10:09:13;;;;;;;9.40;3.88;;;;;;;22.70;32.25;98129.97;10427694;28;20068;-73
2023/10/07 10:14:56;;;;;;;6.88;3.72;;;;;;;21.73;33.68;98117.31;10428298;28;20167;-73
2023/10/07 10:20:18;;;;;;;13.23;3.72;;;;;;;21.47;34.34;98137.13;10444241;28;20095;-73
2023/10/07 10:25:39;;;;;;;8.80;3.58;;;;;;;21.74;35.25;98135.81;10441476;28;20068;-73
2023/10/07 10:31:01;;;;;;;7.97;3.53;;;;;;;21.79;34.68;98125.28;10427469;28;20159;-72
2023/10/07 10:36:21;;;;;;;9.63;3.67;;;;;;;21.29;35.23;98131.59;10426771;28;20129;-72
2023/10/07 10:41:42;;;;;;;9.18;3.80;;;;;;;20.95;36.18;98134.03;10455795;28;20402;-73
2023/10/07 10:47:03;;;;;;;6.68;3.15;;;;;;;20.52;36.96;98138.25;10426866;28;20045;-73
2023/10/07 10:52:26;;;;;;;6.93;3.45;;;;;;;20.39;37.73;98144.16;10440755;28;20509;-71
2023/10/07 10:57:47;;;;;;;8.23;3.70;;;;;;;20.63;37.75;98150.69;10440576;28;20126;-73
2023/10/07 11:03:13;;;;;;;7.03;3.65;;;;;;;20.34;38.18;98159.56;10440616;28;20073;-73
2023/10/07 11:08:34;;;;;;;8.23;3.90;;;;;;;19.89;38.82;98146.59;10426005;28;20041;-73
2023/10/07 11:13:54;;;;;;;9.07;3.78;;;;;;;19.72;40.03;98140.31;10455003;28;20116;-73
2023/10/07 11:19:15;;;;;;;7.35;3.13;;;;;;;20.39;40.17;98133.53;10442620;28;20431;-72
2023/10/07 11:24:37;;;;;;;7.65;3.40;;;;;;;20.77;38.59;98122.81;10433785;28;20118;-71
2023/10/07 11:30:03;;;;;;;7.18;3.33;;;;;;;21.03;38.24;98088.16;10419874;28;20134;-72
2023/10/07 11:35:30;;;;;;;9.75;3.40;;;;;;;20.95;38.23;98097.16;10448064;28;20087;-74
2023/10/07 11:40:52;;;;;;;7.13;3.03;;;;;;;21.03;38.53;98071.13;10448024;28;20091;-74
2023/10/07 11:46:13;;;;;;;6.13;2.77;;;;;;;21.76;37.85;98079.06;10433314;28;20068;-73
2023/10/07 11:51:34;;;;;;;6.95;3.08;;;;;;;22.80;36.49;98076.16;10433003;28;20395;-73
2023/10/07 11:56:55;;;;;;;10.35;3.15;;;;;;;23.21;35.30;98057.22;10446399;28;20048;-73
2023/10/07 12:02:16;;;;;;;8.82;3.20;;;;;;;22.93;35.12;98057.28;10446293;28;20056;-74
2023/10/07 12:07:38;;;;;;;6.05;2.38;;;;;;;22.39;36.17;98063.00;10431713;28;20075;-72
2023/10/07 12:13:00;;;;;;;6.57;2.73;;;;;;;22.12;36.72;98070.13;10445887;28;20121;-71
2023/10/07 12:18:21;;;;;;;10.30;2.92;;;;;;;21.82;37.07;98076.41;10446068;28;20207;-71
2023/10/07 12:23:43;;;;;;;5.63;2.63;;;;;;;21.35;37.88;98079.97;10460098;28;20068;-72
2023/10/07 12:29:04;;;;;;;6.37;2.60;;;;;;;21.11;38.61;98077.06;10431110;28;20069;-72
2023/10/07 12:34:26;;;;;;;6.30;2.75;;;;;;;20.85;38.90;98091.88;10431067;28;20125;-72
2023/10/07 12:39:49;;;;;;;8.25;2.53;;;;;;;20.64;39.44;98091.84;10444607;28;20124;-72
2023/10/07 12:45:10;;;;;;;7.05;2.63;;;;;;;20.42;40.29;98080.47;10444239;28;20123;-72
2023/10/07 12:50:33;;;;;;;9.10;2.72;;;;;;;20.24;40.89;98095.44;10431426;28;20052;-72
2023/10/07 12:55:54;;;;;;;5.57;2.78;;;;;;;20.25;41.19;98071.38;10444205;28;20444;-72
2023/10/07 13:01:19;;;;;;;8.13;2.45;;;;;;;20.63;41.10;98064.88;10416401;28;20072;-71
2023/10/07 13:06:43;;;;;;;7.93;2.80;;;;;;;21.06;40.00;98062.03;10457194;28;20060;-70
2023/10/07 13:12:11;;;;;;;11.10;3.10;;;;;;;21.20;40.11;98090.13;10457981;28;20037;-71
2023/10/07 13:17:33;;;;;;;6.43;2.97;;;;;;;21.06;39.88;98084.03;10457058;28;20125;-71
2023/10/07 13:22:57;;;;;;;8.40;2.67;;;;;;;20.71;40.54;98068.72;10442990;28;20451;-71
2023/10/07 13:28:18;;;;;;;5.80;2.65;;;;;;;20.58;40.80;98058.34;10443211;28;20116;-70
2023/10/07 13:33:39;;;;;;;7.47;2.80;;;;;;;20.86;41.46;98045.09;10457065;28;20041;-72
2023/10/07 13:39:02;;;;;;;6.13;2.67;;;;;;;21.53;40.08;98037.19;10457116;28;20048;-72
2023/10/07 13:44:23;;;;;;;;;;;;;;;21.59;39.15;98040.91;10457050;28;20144;-72
2023/10/07 13:49:47;;;;;;;5.32;2.70;;;;;;;21.12;39.23;98019.63;10455517;28;20344;-72
2023/10/07 13:55:21;;;;;;;5.95;2.40;;;;;;;20.48;40.29;98038.19;10456247;28;20120;-71
2023/10/07 14:00:46;;;;;;;6.97;2.83;;;;;;;19.87;41.37;98041.69;10455585;28;20421;-70
2023/10/07 14:06:07;;;;;;;5.47;2.75;;;;;;;19.61;42.63;98050.72;10441851;28;20468;-72
2023/10/07 14:11:28;;;;;;;7.78;2.80;;;;;;;19.42;43.20;98051.38;10456324;28;20455;-71
2023/10/07 14:16:55;;;;;;;6.43;3.10;;;;;;;19.38;43.69;98062.53;10455204;28;20116;-72
2023/10/07 14:22:17;;;;;;;7.80;3.28;;;;;;;19.36;44.25;98051.88;10454915;28;20068;-72
2023/10/07 14:27:40;;;;;;;9.18;2.67;;;;;;;19.25;44.42;98064.19;10455267;28;20494;-73
2023/10/07 14:33:00;;;;;;;10.43;3.03;;;;;;;19.03;45.00;98013.13;10454684;28;20060;-72
2023/10/07 14:38:21;;;;;;;8.65;2.80;;;;;;;18.80;45.73;98039.06;10454691;28;20049;-71
2023/10/07 14:43:43;;;;;;;11.88;4.07;;;;;;;18.76;45.84;98030.44;10426663;28;20072;-72
2023/10/07 14:49:04;;;;;;;8.90;3.80;;;;;;;18.71;46.04;98032.34;10454526;28;20175;-72
2023/10/07 14:54:25;;;;;;;13.18;4.18;;;;;;;18.66;46.70;98010.25;10445167;28;20103;-72
2023/10/07 14:59:45;;;;;;;11.68;3.75;;;;;;;18.55;47.39;98011.91;10448731;28;20068;-72
2023/10/07 15:05:08;;;;;;;8.23;3.13;;;;;;;18.38;48.39;98018.25;10463669;28;20061;-74
2023/10/07 15:10:29;;;;;;;8.88;3.03;;;;;;;18.23;48.85;98016.94;10448608;28;20488;-75
2023/10/07 15:15:50;;;;;;;6.18;2.45;;;;;;;18.05;49.90;98008.44;10448365;28;20068;-74
2023/10/07 15:21:11;;;;;;;13.63;2.95;;;;;;;17.89;50.86;98013.38;10447646;28;20116;-74
2023/10/07 15:26:33;;;;;;;7.10;3.00;;;;;;;17.80;51.45;98023.59;10462981;28;20048;-74
2023/10/07 15:31:54;;;;;;;8.07;2.85;;;;;;;17.71;52.03;98033.06;10447415;28;20069;-74
2023/10/07 15:37:16;;;;;;;8.88;3.20;;;;;;;17.62;52.62;98020.66;10462100;28;20454;-74
2023/10/07 15:42:36;;;;;;;6.03;3.00;;;;;;;17.65;52.69;98029.94;10446899;28;20430;-74
2023/10/07 15:47:57;;;;;;;8.00;3.00;;;;;;;17.64;53.08;98036.97;10447356;28;20044;-73
2023/10/07 15:53:18;;;;;;;8.50;3.20;;;;;;;17.58;53.35;98022.59;10446567;28;20506;-73
2023/10/07 15:58:43;;;;;;;7.85;3.10;;;;;;;17.46;53.94;98020.66;10433061;28;20487;-74
2023/10/07 16:04:04;;;;;;;5.57;2.55;;;;;;;17.36;54.46;98025.84;10432062;28;20077;-73
2023/10/07 16:09:26;;;;;;;7.30;3.10;;;;;;;17.28;54.82;98033.97;10460749;28;20075;-74
2023/10/07 16:14:47;;;;;;;8.93;3.10;;;;;;;17.23;54.90;98032.31;10432288;28;20069;-74
2023/10/07 16:20:09;;;;;;;7.10;2.67;;;;;;;17.18;55.70;98033.50;10431912;28;20450;-75
2023/10/07 16:25:32;;;;;;;8.60;3.10;;;;;;;17.15;55.91;98043.22;10461143;28;20065;-74
2023/10/07 16:30:53;;;;;;;8.65;3.10;;;;;;;17.12;56.40;98028.31;10445462;28;20065;-74
2023/10/07 16:36:15;;;;;;;7.82;2.90;;;;;;;17.04;56.68;98027.91;10460189;28;20064;-74
2023/10/07 16:41:36;;;;;;;6.93;2.80;;;;;;;17.00;57.17;98036.19;10419067;28;20079;-74
2023/10/07 16:46:59;;;;;;;8.90;2.83;;;;;;;16.97;57.71;98031.81;10464313;28;20056;-74
2023/10/07 16:52:21;;;;;;;7.00;2.58;;;;;;;16.98;57.90;98027.63;10469108;28;20079;-74
2023/10/07 16:57:42;;;;;;;7.27;2.80;;;;;;;16.97;58.02;98026.16;10420521;28;20121;-73
2023/10/07 17:03:04;;;;;;;6.53;2.47;;;;;;;16.97;58.26;98014.16;10459344;28;20049;-74
2023/10/07 17:08:26;;;;;;;13.68;7.80;;;;;;;16.95;58.51;98031.72;10444536;28;20463;-74
2023/10/07 17:13:47;;;;;;;10.82;3.40;;;;;;;16.96;58.82;98038.81;10459249;28;20120;-74
2023/10/07 17:19:09;;;;;;;8.75;2.70;;;;;;;16.97;58.55;98014.88;10457557;28;20073;-73
2023/10/07 17:24:31;;;;;;;7.27;2.80;;;;;;;16.94;58.83;98024.63;10458109;28;20037;-74
2023/10/07 17:29:52;;;;;;;7.63;3.00;;;;;;;16.93;58.81;98025.25;10429495;28;20502;-74
2023/10/07 17:35:13;;;;;;;4.53;2.15;;;;;;;16.91;59.10;98006.16;10443275;28;20118;-73
2023/10/07 17:40:38;;;;;;;5.95;2.45;;;;;;;16.84;59.29;98005.16;10443374;28;20097;-72
2023/10/07 17:45:59;;;;;;;6.13;2.45;;;;;;;16.83;59.29;98006.50;10429599;28;20128;-72
2023/10/07 17:51:21;;;;;;;6.72;2.25;;;;;;;16.82;59.19;98005.06;10442581;28;20499;-73
2023/10/07 17:56:43;;;;;;;7.63;2.42;;;;;;;16.85;59.28;98005.88;10442252;28;20406;-74
2023/10/07 18:02:04;;;;;;;6.40;2.67;;;;;;;16.79;59.65;98014.78;10428182;28;20056;-74
2023/10/07 18:07:26;;;;;;;6.88;2.70;;;;;;;16.80;59.64;98007.78;10441949;28;20041;-74
2023/10/07 18:12:47;;;;;;;5.70;2.33;;;;;;;16.79;59.49;97997.88;10428096;28;20116;-74
2023/10/07 18:18:08;;;;;;;6.40;2.55;;;;;;;16.78;59.73;97990.75;10427992;28;20061;-73
2023/10/07 18:23:29;;;;;;;7.97;2.95;;;;;;;16.74;59.49;97973.66;10456508;28;20095;-73
2023/10/07 18:28:49;;;;;;;7.93;2.72;;;;;;;16.70;59.96;97955.84;10455838;28;20221;-73
2023/10/07 18:34:10;;;;;;;7.38;3.17;;;;;;;16.63;60.25;97971.69;10441121;28;20114;-73
2023/10/07 18:39:33;;;;;;;5.90;2.40;;;;;;;16.57;60.67;97966.50;10427616;28;20125;-72
2023/10/07 18:44:54;;;;;;;6.25;2.33;;;;;;;16.53;60.77;97957.84;10441436;28;20064;-73
2023/10/07 18:50:16;;;;;;;6.85;2.22;;;;;;;16.50;60.90;97961.19;10455998;28;20487;-74
2023/10/07 18:55:37;;;;;;;6.38;2.58;;;;;;;16.48;60.94;97961.84;10427057;28;20072;-72
2023/10/07 19:01:02;;;;;;;6.18;2.65;;;;;;;16.42;60.99;97967.19;10440813;28;20052;-74
2023/10/07 19:06:23;;;;;;;7.13;2.97;;;;;;;16.45;60.86;97959.56;10438251;28;20179;-74
2023/10/07 19:11:44;;;;;;;7.90;2.53;;;;;;;16.38;61.40;97944.44;10440691;28;20065;-74
2023/10/07 19:17:05;;;;;;;7.90;2.92;;;;;;;16.37;61.52;97948.63;10440293;28;20079;-73
2023/10/07 19:22:26;;;;;;;9.35;2.70;;;;;;;16.40;61.71;97935.34;10426426;28;20045;-72
2023/10/07 19:27:47;;;;;;;6.82;2.70;;;;;;;16.37;61.40;97953.53;10455855;28;20455;-72
2023/10/07 19:33:08;;;;;;;7.00;2.22;;;;;;;16.36;61.32;97964.06;10455255;28;20061;-73
2023/10/07 19:38:29;;;;;;;6.20;2.40;;;;;;;16.41;61.15;97965.00;10454018;28;20075;-73
2023/10/07 19:43:52;;;;;;;8.85;2.85;;;;;;;16.41;61.01;97990.38;10462249;28;20069;-74
2023/10/07 19:49:12;;;;;;;5.45;2.83;;;;;;;16.42;61.13;98014.34;10460878;28;20159;-74
2023/10/07 19:54:33;;;;;;;7.40;2.72;;;;;;;16.47;61.04;98010.38;10460715;28;20065;-74
2023/10/07 20:00:01;;;;;;;6.25;2.35;;;;;;;16.47;60.79;98016.72;10462484;28;20487;-73
2023/10/07 20:05:26;;;;;;;7.70;2.85;;;;;;;16.47;60.79;98013.19;10461437;28;20399;-73
2023/10/07 20:10:48;;;;;;;6.55;2.42;;;;;;;16.49;60.76;98004.81;10446976;28;20128;-74
2023/10/07 20:16:10;;;;;;;5.57;2.30;;;;;;;16.48;60.49;98000.56;10446326;28;20551;-72
2023/10/07 20:21:31;;;;;;;6.97;2.75;;;;;;;16.48;60.44;97997.72;10460076;28;20056;-73
2023/10/07 20:26:52;;;;;;;7.10;3.08;;;;;;;16.46;60.15;97995.56;10445985;28;20079;-74
2023/10/07 20:32:12;;;;;;;5.60;2.58;;;;;;;16.49;60.33;97976.66;10460334;28;20144;-74
2023/10/07 20:37:33;;;;;;;6.90;2.45;;;;;;;16.48;60.24;97992.09;10460379;28;20064;-74
2023/10/07 20:42:54;;;;;;;6.15;2.60;;;;;;;16.47;60.20;97991.38;10431473;28;20539;-74
2023/10/07 20:48:15;;;;;;;5.60;2.38;;;;;;;16.48;59.98;97966.75;10444746;28;20061;-74
2023/10/07 20:53:38;;;;;;;6.93;2.55;;;;;;;16.49;59.69;97971.00;10428611;28;20068;-74
2023/10/07 20:58:59;;;;;;;7.35;2.58;;;;;;;16.49;59.60;97976.66;10444972;28;20123;-73
2023/10/07 21:04:19;;;;;;;6.82;2.42;;;;;;;16.47;59.56;97977.28;10458513;28;20127;-72
2023/10/07 21:09:41;;;;;;;7.18;2.90;;;;;;;16.47;59.58;97974.47;10430272;28;20485;-72
2023/10/07 21:15:01;;;;;;;7.60;3.28;;;;;;;16.46;59.40;97975.81;10416761;28;20441;-72
2023/10/07 21:20:24;;;;;;;6.20;3.03;;;;;;;16.44;59.32;97970.09;10443755;28;20073;-73
2023/10/07 21:25:47;;;;;;;8.57;3.03;;;;;;;16.43;59.39;97967.91;10458486;28;20099;-73
2023/10/07 21:31:08;;;;;;;9.65;2.45;;;;;;;16.46;59.38;97955.38;10429822;28;20179;-73
2023/10/07 21:36:29;;;;;;;6.38;2.67;;;;;;;16.46;59.07;97952.56;10458165;28;20666;-75
2023/10/07 21:41:50;;;;;;;9.20;2.95;;;;;;;16.51;59.05;97945.78;10415741;28;20121;-73
2023/10/07 21:47:11;;;;;;;7.97;2.90;;;;;;;16.53;59.42;97971.94;10429458;28;20068;-72
2023/10/07 21:52:32;;;;;;;6.18;2.75;;;;;;;16.55;58.77;97954.41;10457176;28;20105;-74
2023/10/07 21:57:53;;;;;;;7.63;3.00;;;;;;;16.58;58.91;97962.31;10442341;28;20160;-74
2023/10/07 22:03:17;;;;;;;6.00;2.50;;;;;;;16.58;58.76;97947.50;10441553;28;20171;-73
2023/10/07 22:08:41;;;;;;;11.15;3.47;;;;;;;16.60;58.50;97961.69;10444590;28;20136;-73
2023/10/07 22:14:04;;;;;;;6.07;2.28;;;;;;;16.60;58.47;97970.88;10428901;28;20064;-72
2023/10/07 22:19:25;;;;;;;6.03;2.50;;;;;;;16.58;58.52;97967.22;10428427;28;20106;-73
2023/10/07 22:24:46;;;;;;;8.95;2.90;;;;;;;16.58;58.66;97970.03;10441668;28;20068;-74
2023/10/07 22:30:07;;;;;;;7.63;2.28;;;;;;;16.62;58.77;97950.53;10456312;28;20045;-73
2023/10/07 22:35:33;;;;;;;6.53;2.53;;;;;;;16.59;58.54;97935.59;10414121;28;20061;-72
2023/10/07 22:41:05;;;;;;;6.88;2.63;;;;;;;16.59;58.59;97944.03;10429146;28;20072;-74
2023/10/07 22:46:27;;;;;;;5.38;2.53;;;;;;;16.58;58.73;97948.22;10456501;28;20526;-75
2023/10/07 22:51:53;;;;;;;5.57;2.53;;;;;;;16.65;58.66;97928.78;10441676;28;20080;-74
2023/10/07 22:57:14;;;;;;;8.60;2.40;;;;;;;16.68;58.38;97914.19;10442701;28;20084;-74
2023/10/07 23:02:37;;;;;;;8.07;2.75;;;;;;;16.67;58.47;97920.44;10458386;22;20117;-73
2023/10/07 23:08:00;;;;;;;6.63;2.23;;;;;;;16.73;58.22;97929.19;10400438;28;20049;-75
2023/10/07 23:13:24;;;;;;;5.63;2.35;;;;;;;16.74;58.17;97922.94;10442038;28;20041;-73
2023/10/07 23:18:46;;;;;;;6.25;2.45;;;;;;;16.74;58.19;97927.84;10448867;28;20069;-74
2023/10/07 23:24:08;;;;;;;5.80;2.55;;;;;;;16.75;58.19;97929.28;10448179;28;20068;-74
2023/10/07 23:29:33;;;;;;;7.28;2.40;;;;;;;16.76;57.93;97936.38;10462829;28;20530;-75
2023/10/07 23:35:11;;;;;;;6.85;2.45;;;;;;;16.76;57.99;97936.38;10435122;28;20482;-75
2023/10/07 23:40:32;;;;;;;5.88;2.45;;;;;;;16.74;58.03;97939.84;10438247;28;20048;-72
2023/10/07 23:45:53;;;;;;;7.22;2.30;;;;;;;16.72;58.06;97941.84;10433757;28;20459;-74
2023/10/07 23:51:19;;;;;;;6.97;2.22;;;;;;;16.75;58.29;97937.75;10433490;28;20064;-72
2023/10/07 23:56:44;;;;;;;7.63;2.30;;;;;;;16.72;57.98;97939.03;10435280;28;20068;-74
